Weather observations for the past three days for
Mid Valley Airport
Imperial (Metric)
Date Time (cdt) Wind (mph) Vis. (mi.) Weather Sky Cond. Temperature (ºF) Relative Humidity Wind Chill (°F) Heat Index (°F) Pressure Precipitation (in)
Air Dwpt 6 hour altimeter (in) sea level (mb) 1 hr 3 hr 6 hr
Max. Min.
06 22:55 E 7 10.00 Overcast OVC014 82.2 76.5 83% 90 29.82 0.0
06 22:15 E 7 10.00 Partly Cloudy SCT014 82.4 76.5 82% 90 29.8 0.0
06 21:55 E 9 10.00 Fair CLR 82.8 76.5 81% 91 29.79 0.0
06 21:35 E 12 10.00 Fair CLR 83.5 76.5 79% 92 29.78 0.0
06 21:15 E 9 10.00 Fair CLR 84.9 76.3 75% 95 29.76 0.0
06 20:55 SE 13 10.00 Fair CLR 85.8 76.1 73% 96 29.75 0.0
06 20:35 E 12 10.00 Fair CLR 86.9 76.1 70% 97 29.75 0.0
06 20:15 SE 14 10.00 Fair CLR 88.3 75.7 66% 99 29.73 0.0
06 19:55 E 14 10.00 Fair CLR 89.8 75.6 63% 101 29.71 0.0
06 19:35 E 17 G 21 10.00 Fair CLR 91.9 74.7 57% 103 29.7 0.0
06 19:15 E 16 G 22 10.00 Fair CLR 92.8 76.1 58% 106 29.69 0.0
06 18:55 E 14 10.00 Fair CLR 93 77.2 98.1 90.3 60% 107 29.69 0.0
06 18:35 NE 14 10.00 Fair CLR 94.5 77.2 57% 109 29.68 0.0
06 17:55 E 7 7.00 Partly Cloudy SCT048 97 75.7 51% 111 29.67 0.0
06 17:35 NE 10 7.00 Partly Cloudy SCT048 SCT065 97.3 75.9 50% 111 29.67 0.0
06 17:15 NE 6 7.00 Partly Cloudy SCT048 SCT065 96.4 75.6 51% 110 29.67 0.0
06 16:50 SE 5 10.00 Overcast BKN048 OVC050 95.5 75.6 53% 108 29.67 0.0
06 16:35 E 7 10.00 Overcast OVC044 96.4 75.9 52% 110 29.67 0.0
06 16:15 SE 7 10.00 Mostly Cloudy BKN046 BKN050 95.9 75.9 53% 109 29.68 0.0
06 15:55 SE 3 10.00 Mostly Cloudy BKN046 97.2 75.9 51% 111 29.68 0.0
06 15:35 Calm 7.00 Partly Cloudy SCT046 96.3 75.4 51% 109 29.69 0.0
06 15:15 S 7 7.00 Partly Cloudy SCT041 SCT047 96.3 75.4 51% 109 29.69 0.0
06 14:55 E 5 7.00 Partly Cloudy SCT038 SCT046 94.5 75.9 55% 108 29.7 0.0
06 14:35 S 7 7.00 Mostly Cloudy BKN039 BKN048 94.5 75.9 55% 108 29.71 0.0
06 14:15 SE 7 7.00 Overcast BKN039 OVC044 92.8 75.6 57% 105 29.72 0.0
06 13:55 S 8 G 17 7.00 Overcast with Haze OVC039 93 76.3 58% 106 29.73 0.0
06 13:35 SE 9 7.00 Overcast OVC037 92.7 75.9 58% 105 29.73 0.0
06 13:15 S 14 7.00 Overcast OVC036 91.8 75.6 59% 104 29.74 0.0
06 12:55 S 10 G 21 7.00 Mostly Cloudy with Haze BKN034 BKN042 92.5 75.2 93 79.5 57% 104 29.74 0.0
06 12:35 S 14 7.00 Overcast with Haze BKN032 OVC039 89.8 75 62% 100 29.75 0.0
06 12:15 S 13 G 16 5.00 Overcast with Haze BKN027 OVC031 87.8 75.4 67% 98 29.75 0.0
06 11:55 S 13 5.00 Overcast with Haze OVC023 86.2 75.6 71% 96 29.75 0.0
06 11:35 S 10 5.00 Overcast with Haze OVC023 85.1 75.4 73% 94 29.76 0.0
06 11:15 SE 10 4.00 Overcast with Haze BKN021 OVC029 84.2 75.4 75% 93 29.75 0.0
06 10:55 S 10 4.00 Overcast with Haze OVC019 83.5 75.2 76% 91 29.76 0.0
06 10:35 S 8 4.00 Overcast with Haze OVC019 83.1 74.8 76% 90 29.76 0.0
06 10:15 S 8 3.50 Overcast with Haze BKN019 OVC024 82.8 74.8 77% 90 29.75 0.0
06 09:55 SE 7 3.50 Overcast with Haze SCT018 OVC024 82 74.8 79% 89 29.76 0.0
06 09:35 SE 7 3.00 Overcast with Haze OVC022 81 74.8 82% 87 29.76 0.0
06 09:15 SE 6 3.00 Overcast with Haze BKN022 OVC028 80.2 74.7 83% 85 29.77 0.0
06 08:55 S 7 3.00 Overcast with Haze SCT019 OVC025 79.9 74.7 84% 85 29.77 0.0
06 08:35 S 5 3.00 Overcast with Haze BKN016 OVC025 79.5 74.7 85% 84 29.77 0.0
06 08:15 S 8 3.00 Overcast with Haze OVC014 79.9 74.7 84% 85 29.77 0.0
06 07:55 S 7 3.00 Overcast with Haze OVC017 80.1 74.3 83% 85 29.76 0.0
06 07:35 S 10 3.00 Overcast with Haze OVC017 79.9 74.3 83% 84 29.74 0.0
06 06:55 S 10 4.00 Overcast with Haze OVC015 79.7 74.3 79.7 79 84% 84 29.72 0.0
06 06:35 S 14 4.00 Overcast with Haze OVC013 79.5 74.1 84% 84 29.71 0.0
06 06:15 SE 9 5.00 Overcast with Haze OVC011 79 74.5 86% 83 29.7 0.0
06 05:55 SE 9 5.00 Fog/Mist OVC013 79.2 74.5 86% 83 29.69 0.0
06 05:35 SE 13 G 17 5.00 Overcast with Haze OVC013 79.3 74.3 85% 83 29.68 0.0
06 05:15 SE 10 G 16 5.00 Overcast with Haze OVC013 79.5 74.3 84% 84 29.68 0.0
06 04:55 S 13 4.00 Overcast with Haze OVC015 79.5 74.3 84% 84 29.68 0.0
06 04:35 SE 13 G 18 4.00 Overcast with Haze OVC017 79.5 74.1 84% 84 29.69 0.0
06 04:15 SE 14 5.00 Overcast with Haze BKN012 OVC017 79.3 74.1 84% 83 29.69 0.0
06 03:55 S 16 5.00 Overcast with Haze OVC012 79.3 74.1 84% 83 29.69 0.0
06 03:35 S 12 G 18 5.00 Overcast with Haze OVC012 79.2 74.3 85% 83 29.7 0.0
06 03:15 SE 10 7.00 Overcast with Haze OVC012 79.3 74.5 85% 83 29.71 0.0
06 02:55 SE 10 G 17 7.00 Overcast with Haze OVC012 79.3 74.3 85% 83 29.7 0.0
06 02:35 SE 13 7.00 Overcast with Haze OVC012 79.3 74.3 85% 83 29.71 0.0
06 02:15 SE 12 G 18 7.00 Overcast with Haze OVC014 79.5 74.3 84% 84 29.72 0.0
06 01:55 SE 12 G 20 7.00 Overcast with Haze OVC014 79.7 74.3 84% 84 29.72 0.0
06 01:35 SE 13 G 18 7.00 Overcast OVC016 79.5 74.1 84% 84 29.73 0.0
06 01:15 SE 14 7.00 Mostly Cloudy BKN016 79.3 73.9 84% 83 29.73 0.0
06 00:55 SE 15 G 21 10.00 Mostly Cloudy SCT016 BKN032 79.7 73.9 85.1 79.7 83% 84 29.73 0.0
06 00:35 SE 15 G 22 10.00 Overcast BKN016 OVC032 80.2 73.8 81% 85 29.74 0.0
06 00:15 SE 16 G 22 10.00 Overcast SCT016 OVC032 80.4 73.6 80% 85 29.74 0.0
05 23:55 SE 16 G 22 10.00 Mostly Cloudy SCT018 BKN030 80.6 73.4 79% 85 29.75 0.0
05 23:35 SE 15 G 23 10.00 Mostly Cloudy SCT020 BKN030 80.8 73.6 79% 86 29.75 0.0
05 23:15 SE 13 G 23 10.00 Overcast SCT020 OVC028 81.1 73.4 77% 86 29.75 0.0
05 22:55 SE 15 G 20 10.00 Overcast SCT018 OVC030 81.3 73.6 77% 87 29.74 0.0
05 22:35 SE 12 G 22 10.00 Overcast BKN018 BKN026 OVC032 81.3 73.8 78% 87 29.74 0.0
05 22:15 SE 14 10.00 Overcast OVC018 81.3 73.9 78% 87 29.74 0.0
05 21:55 SE 14 10.00 Overcast BKN020 OVC029 81.5 73.6 77% 87 29.72 0.0
05 21:35 SE 16 G 21 10.00 Overcast SCT020 OVC027 81.7 73.4 76% 87 29.71 0.0
05 21:15 SE 16 10.00 Overcast BKN023 OVC027 81.9 73.4 76% 87 29.71 0.0
05 20:55 SE 16 G 23 10.00 Overcast OVC023 82.2 73.4 75% 88 29.7 0.0
05 20:35 SE 16 G 22 10.00 Overcast OVC025 82.4 73.2 74% 88 29.68 0.0
05 20:15 SE 15 10.00 Overcast OVC027 82.8 73 73% 89 29.68 0.0
05 19:55 S 15 G 28 10.00 Overcast OVC029 83.3 72.9 71% 89 29.67 0.0
05 19:35 SE 18 G 23 10.00 Partly Cloudy SCT031 83.8 72.7 69% 90 29.66 0.0
05 19:15 SE 21 G 26 10.00 Partly Cloudy and Breezy SCT032 84.4 72.5 68% 90 29.66 0.0
05 18:55 SE 21 G 25 10.00 Partly Cloudy and Breezy SCT032 85.3 72.7 92.8 85.1 66% 92 29.66 0.0
05 18:35 SE 18 G 25 10.00 Partly Cloudy SCT034 86.5 72.5 63% 93 29.65 0.0
05 18:15 SE 18 G 26 10.00 Mostly Cloudy BKN034 86.5 72.5 63% 93 29.66 0.0
05 17:55 SE 20 10.00 Partly Cloudy SCT034 86.9 72.5 62% 94 29.65 0.0
05 17:35 SE 20 G 28 10.00 Partly Cloudy SCT036 87.6 72.3 61% 95 29.65 0.0
05 17:15 SE 17 G 25 10.00 Mostly Cloudy BKN036 89.4 72.1 57% 97 29.66 0.0
05 16:55 SE 18 G 25 10.00 Partly Cloudy SCT038 89.8 71.6 55% 97 29.66 0.0
05 16:35 S 17 G 24 10.00 Mostly Cloudy BKN038 90.3 71.2 54% 97 29.67 0.0
05 16:15 S 17 G 29 10.00 Mostly Cloudy BKN038 89.8 71.1 54% 96 29.68 0.0
05 15:55 SE 17 G 23 10.00 Overcast OVC038 89.2 71.4 56% 96 29.68 0.0
05 15:35 S 20 G 26 10.00 Mostly Cloudy BKN038 89.8 71.4 55% 96 29.69 0.0
05 15:15 SE 21 G 25 10.00 Mostly Cloudy and Breezy BKN038 BKN045 89.8 71.6 55% 97 29.69 0.0
05 14:55 S 16 G 24 10.00 Mostly Cloudy BKN038 90.5 71.8 54% 98 29.7 0.0
05 14:35 SE 15 G 28 10.00 Overcast BKN036 OVC042 89.4 71.6 56% 96 29.71 0.0
05 14:15 SE 17 G 28 10.00 Overcast OVC036 88.7 71.8 57% 95 29.71 0.0
05 13:55 SE 18 G 24 10.00 Mostly Cloudy BKN036 88.7 71.8 57% 95 29.72 0.0
05 13:35 S 17 G 26 10.00 Mostly Cloudy BKN036 89.4 71.6 56% 96 29.73 0.0
05 13:15 SE 16 G 25 10.00 Mostly Cloudy BKN036 88.2 71.4 58% 94 29.74 0.0
05 12:55 S 20 G 23 10.00 Overcast OVC033 87.6 71.1 88.5 76.6 58% 93 29.75 0.0
05 12:35 SE 16 G 28 10.00 Overcast OVC035 87.4 71.8 60% 94 29.74 0.0
05 11:55 S 13 G 28 10.00 Mostly Cloudy BKN031 BKN037 86.2 71.6 62% 92 29.76 0.0
05 11:35 S 21 G 26 10.00 Mostly Cloudy and Breezy BKN029 BKN035 86.2 71.6 62% 92 29.76 0.0
05 11:15 S 20 G 30 10.00 Mostly Cloudy BKN029 BKN035 85.1 71.6 64% 91 29.77 0.0
05 10:55 S 20 G 25 10.00 Mostly Cloudy BKN026 BKN032 84.2 71.6 66% 90 29.77 0.0
05 10:35 S 17 G 24 10.00 Overcast OVC023 83.1 72 69% 88 29.77 0.0
05 10:15 S 17 G 25 10.00 Overcast OVC023 82 71.4 70% 87 29.78 0.0
05 09:55 S 14 G 20 10.00 Overcast OVC023 81.1 71.6 73% 85 29.78 0.0
05 09:35 S 16 G 21 10.00 Overcast BKN019 OVC023 80.8 71.8 74% 85 29.78 0.0
05 09:15 S 18 G 23 10.00 Mostly Cloudy BKN017 BKN023 80.2 71.8 75% 84 29.77 0.0
05 08:55 S 12 G 18 10.00 Overcast OVC017 79.2 72 79% 82 29.77 0.0
05 08:35 S 18 G 26 10.00 Overcast OVC017 79 71.8 79% 82 29.77 0.0
05 08:15 S 15 G 21 10.00 Mostly Cloudy BKN019 78.6 71.8 80% 81 29.77 0.0
05 07:35 S 10 10.00 Overcast BKN014 OVC020 77.4 72.1 84% 79 29.77 0.0
05 07:15 S 13 10.00 Overcast OVC016 76.8 72 85% 78 29.76 0.0
05 06:55 S 12 G 16 10.00 Overcast OVC016 76.6 72 77.2 75 86% 78 29.76 0.0
05 06:15 S 13 G 18 10.00 Overcast BKN016 OVC021 77 72.1 85% 78 29.76 0.0
05 05:55 S 13 G 20 10.00 Overcast BKN014 OVC021 77 72 85% 78 29.77 0.0
05 05:35 S 9 G 20 10.00 Overcast OVC014 77 72 85% 78 29.77 0.0
05 05:15 S 12 G 21 10.00 Overcast BKN014 OVC022 77 72.1 85% 78 29.76 0.0
05 04:55 S 12 10.00 Overcast OVC014 76.8 72.3 86% 78 29.76 0.0
05 04:35 S 10 10.00 Overcast OVC014 76.5 72 86% 77 29.77 0.0
05 04:15 S 12 10.00 Overcast BKN014 OVC022 76.1 71.8 87% 77 29.77 0.0
05 03:55 S 13 10.00 Overcast OVC014 75.9 71.6 87% 76 29.77 0.0
05 03:35 S 12 10.00 Overcast OVC014 75.7 71.4 87% 76 29.78 0.0
05 03:15 S 12 10.00 Overcast OVC014 75.7 71.2 86% 76 29.79 0.0
05 02:55 S 10 10.00 Overcast BKN016 OVC021 75.4 71.1 87% 75 29.79 0.0
05 02:35 S 14 G 17 10.00 Mostly Cloudy BKN015 75.2 70.9 87% 75 29.79 0.0
05 02:15 SE 13 10.00 Mostly Cloudy BKN019 75.6 70.9 85% 76 29.8 0.0
05 01:55 S 13 10.00 Overcast OVC021 75.4 70.3 84% 76 29.81 0.0
05 01:35 SE 9 10.00 Overcast OVC021 75.4 70.2 84% 76 29.82 0.0
05 01:15 S 14 10.00 Overcast OVC021 75.2 69.8 83% 75 29.82 0.0
05 00:55 S 8 10.00 Overcast OVC023 75 69.4 81 74.5 83% 75 29.83 0.0
05 00:35 S 8 10.00 Mostly Cloudy BKN023 BKN028 74.7 69.3 83% 29.84 0.0
05 00:15 SE 8 10.00 Fair CLR 74.7 69.1 83% 29.84 0.0
04 23:55 S 9 10.00 Fair CLR 74.8 68.9 82% 29.85 0.0
04 23:35 SE 12 10.00 Fair CLR 75.2 68.5 80% 76 29.85 0.0
04 23:15 SE 9 10.00 Fair CLR 75.2 68.4 79% 76 29.85 0.0
04 22:55 SE 9 10.00 Partly Cloudy SCT028 75.4 68 78% 76 29.85 0.0
04 22:35 SE 10 10.00 Overcast OVC028 75.7 68 77% 77 29.85 0.0
04 22:15 SE 10 10.00 Partly Cloudy SCT028 75.7 67.8 77% 77 29.85 0.0
04 21:55 SE 10 10.00 Fair CLR 76.1 67.8 76% 77 29.85 0.0
04 21:35 SE 10 G 17 10.00 Fair CLR 76.3 67.6 75% 78 29.84 0.0
04 21:15 SE 10 G 18 10.00 Partly Cloudy SCT023 SCT027 76.6 67.5 73% 78 29.83 0.0
04 20:55 SE 14 10.00 Partly Cloudy SCT023 77 67.3 72% 79 29.83 0.0
04 20:35 SE 13 10.00 Partly Cloudy SCT028 77.5 67.1 70% 79 29.82 0.0
04 20:15 SE 13 10.00 Partly Cloudy SCT028 78.1 67.1 69% 80 29.82 0.0
04 19:55 SE 12 G 23 10.00 Partly Cloudy SCT028 78.8 66.9 67% 81 29.83 0.0
04 19:35 SE 20 10.00 Mostly Cloudy BKN030 79.5 66.9 65% 82 29.82 0.0
04 19:15 SE 17 10.00 Overcast OVC032 80.6 67.1 64% 83 29.83 0.0
04 18:55 S 16 G 23 10.00 Overcast OVC034 81 66.9 85.1 80.8 62% 83 29.83 0.0
04 18:35 SE 14 10.00 Overcast OVC034 81.9 66.9 61% 84 29.83 0.0
04 18:15 SE 14 G 22 10.00 Mostly Cloudy BKN036 82.6 66.7 59% 85 29.83 0.0
04 17:55 S 13 10.00 Partly Cloudy SCT036 83.5 67.1 58% 86 29.83 0.0
04 17:35 S 8 G 23 10.00 Partly Cloudy SCT036 83.1 67.1 59% 86 29.83 0.0
04 17:15 SE 15 10.00 Partly Cloudy SCT036 83.3 66.6 57% 86 29.83 0.0
04 16:55 SE 16 10.00 Partly Cloudy SCT038 SCT050 83.8 66.7 57% 86 29.83 0.0
04 16:35 S 13 G 21 10.00 Mostly Cloudy SCT038 BKN050 84.6 66.7 55% 87 29.84 0.0
04 16:15 S 16 G 20 10.00 Overcast OVC050 84.4 66.9 56% 87 29.85 0.0
04 15:55 SE 13 10.00 Overcast OVC050 84 66.4 55% 86 29.86 0.0
04 15:35 S 13 10.00 Overcast OVC050 84.4 66.7 56% 87 29.86 0.0
04 15:15 SE 12 10.00 Overcast SCT038 BKN048 OVC050 83.5 66.4 56% 86 29.88 0.0
04 14:55 SE 12 10.00 Overcast SCT036 BKN046 OVC050 82.6 66.2 58% 85 29.88 0.0
04 14:35 S 14 10.00 Overcast SCT036 OVC050 82.6 66.2 58% 85 29.89 0.0
04 14:15 S 14 G 22 10.00 Overcast SCT036 BKN044 OVC050 82.8 66.4 58% 85 29.89 0.0
04 13:55 SE 16 10.00 Overcast BKN036 OVC042 82.2 66.4 59% 85 29.9 0.0
04 13:35 SE 14 10.00 Overcast BKN036 OVC042 81 65.8 60% 83 29.91 0.0
04 13:15 SE 14 G 20 10.00 Overcast OVC036 81.1 65.8 60% 83 29.91 0.0
04 12:55 SE 12 G 18 10.00 Overcast OVC036 81.3 65.7 82.2 70.5 59% 83 29.91 0.0
04 12:35 S 14 G 21 10.00 Overcast OVC036 80.8 65.1 59% 83 29.92 0.0
04 12:15 S 14 G 18 10.00 Overcast OVC036 80.8 64.8 58% 83 29.92 0.0
04 11:55 S 16 G 24 10.00 Overcast OVC038 81 64.2 57% 83 29.93 0.0
04 11:35 SE 15 10.00 Overcast OVC036 80.4 64.2 58% 82 29.94 0.0
04 11:15 SE 14 G 22 10.00 Overcast SCT032 BKN041 OVC050 80.4 63.9 57% 82 29.94 0.0
04 10:55 S 14 G 22 10.00 Overcast SCT030 OVC048 79.7 64.8 60% 81 29.94 0.0
04 10:35 SE 16 G 22 10.00 Overcast SCT030 SCT040 OVC046 78.8 65.1 63% 81 29.95 0.0
04 10:15 SE 17 G 23 10.00 Mostly Cloudy SCT028 BKN044 79.5 64.9 61% 81 29.95 0.0
04 09:55 SE 14 G 23 10.00 Mostly Cloudy BKN028 BKN033 78.4 65.1 64% 80 29.96 0.0
04 09:35 SE 17 G 21 10.00 Partly Cloudy SCT025 SCT033 77.7 65.7 67% 80 29.96 0.0
04 09:15 SE 16 G 21 10.00 Partly Cloudy SCT039 77 66.2 69% 79 29.95 0.0
04 08:55 SE 13 10.00 Mostly Cloudy BKN041 BKN048 75 65.8 73% 76 29.96 0.0
04 08:35 SE 9 10.00 Overcast BKN039 OVC046 73.8 65.3 75% 29.96 0.0
04 08:15 SE 9 10.00 Mostly Cloudy SCT035 BKN046 73.2 65.1 76% 29.96 0.0
04 07:55 SE 8 10.00 Overcast SCT031 SCT038 OVC046 72.3 64.8 77% 29.96 0.0
04 07:35 SE 9 10.00 Overcast SCT036 OVC046 71.4 64.2 78% 29.96 0.0
04 07:15 SE 8 10.00 Overcast SCT023 BKN033 OVC050 70.9 64 79% 29.95 0.0
04 06:55 SE 7 10.00 Overcast OVC050 70.5 63.7 70.5 68 79% 29.96 0.0
04 06:35 SE 9 10.00 Mostly Cloudy BKN050 70.3 63.7 80% 29.95 0.0
04 06:15 SE 7 7.00 Partly Cloudy SCT050 69.3 63.3 81% 29.95 0.0
04 05:55 SE 6 10.00 Mostly Cloudy SCT026 BKN049 69.1 63.1 81% 29.95 0.0
04 05:35 SE 6 10.00 Partly Cloudy SCT030 SCT049 68.5 62.8 82% 29.95 0.0
04 05:15 SE 6 10.00 Fair CLR 68.4 62.6 82% 29.96 0.0
04 04:55 SE 3 10.00 Fair CLR 68.2 62.4 82% 29.97 0.0
04 04:35 SE 6 10.00 Partly Cloudy SCT026 SCT034 SCT040 68.7 62.4 80% 29.96 0.0
04 04:15 SE 7 10.00 Mostly Cloudy SCT026 BKN034 BKN040 68.7 62.4 80% 29.97 0.0
04 03:55 SE 6 10.00 Partly Cloudy SCT028 SCT037 68.2 62.2 81% 29.97 0.0
04 03:35 SE 5 10.00 Fair CLR 68.7 62.2 80% 29.98 0.0
04 03:15 SE 6 10.00 Partly Cloudy SCT028 68.7 62.1 79% 29.98 0.0
04 02:55 SE 5 10.00 Fair CLR 68.5 61.9 79% 30 0.0
04 02:35 E 6 10.00 Partly Cloudy SCT027 69.3 61.9 77% 30 0.0
04 02:15 SE 6 10.00 Fair CLR 68.9 61.7 78% 30 0.0
04 01:55 SE 7 10.00 Fair CLR 68.5 61.3 78% 30 0.0
04 01:35 SE 6 10.00 Fair CLR 69.1 61.3 76% 30.02 0.0
04 01:15 SE 6 10.00 Fair CLR 69.4 61.3 76% 30.03 0.0
04 00:55 SE 7 10.00 Fair CLR 69.6 61.3 78.8 69.4 75% 30.03 0.0
04 00:15 SE 5 10.00 Fair CLR 69.8 60.8 73% 30.05 0.0
03 23:55 E 6 10.00 Fair CLR 70.2 60.6 72% 30.07 0.0
03 23:35 E 6 10.00 Fair CLR 70.2 60.4 71% 30.07 0.0
03 23:15 E 6 10.00 Fair CLR 70.5 60.3 70% 30.07 0.0
Date Time (cdt) Wind (mph) Vis. (mi.) Weather Sky Cond. Air Dwpt Max. Min. Relative Humidity Wind Chill (°F) Heat Index (°F) altimeter (in) sea level (mb) 1 hr 3 hr 6 hr
6 hour
Temperature (ºF) Pressure Precipitation (in)